1V6

Fremont County Airport

Canon City, Colorado, USA
METAR K1V6 210530Z AUTO 29010KT 10SM CLR 00/M06 A3022 RMK AO2
Observed Flight Rules
Nov-21 @ 05:30 UTC (30 minutes ago) Visual Flight Rules
Wind Visibility Clouds
290° at 10 knots 10 miles
  • Clear skies
Temperatures Readings
Current 0°C / 32°F
Dewpoint -6°C / 21°F
Humidity 64%
Altimeter 30.22" Hg
Pressure 1023 hPa
Elevation 1658
METAR K1V6 210530Z AUTO 29010KT 10SM CLR 00/M06 A3022 RMK AO2
Observed Flight Rules
Nov-21 @ 05:30 UTC
(30 minutes ago)
VFR
Wind Visibility
290° at 10 knots 10 miles
Clouds
  • Clear skies
Temperature Dewpoint
0°C / 32°F -6°C / 21°F
Humidity Altimeter Pressure
64% 30.22" Hg 1023 hPa